createdAt,value
2023-04-11T00:00:57.996Z,55.05
2023-04-11T00:03:25.328Z,54.82
2023-04-11T00:05:51.806Z,54.93
2023-04-11T00:08:18.182Z,54.99
2023-04-11T00:10:45.882Z,55.00
2023-04-11T00:13:12.412Z,54.89
2023-04-11T00:15:39.358Z,55.16
2023-04-11T00:18:06.796Z,54.93
2023-04-11T00:20:33.284Z,55.24
2023-04-11T00:22:59.642Z,55.23
2023-04-11T00:25:27.014Z,55.15
2023-04-11T00:27:53.996Z,55.46
2023-04-11T00:30:20.349Z,55.38
2023-04-11T00:32:47.551Z,55.72
2023-04-11T00:35:14.001Z,55.77
2023-04-11T00:37:44.011Z,55.49
2023-04-11T00:40:12.296Z,55.80
2023-04-11T00:42:39.374Z,55.94
2023-04-11T00:45:06.313Z,55.90
2023-04-11T00:47:34.030Z,55.93
2023-04-11T00:50:00.585Z,55.89
2023-04-11T00:52:27.075Z,55.93
2023-04-11T00:54:53.449Z,56.00
2023-04-11T00:57:19.911Z,55.99
2023-04-11T00:59:48.525Z,56.04
2023-04-11T01:02:14.954Z,56.00
2023-04-11T01:04:41.302Z,56.02
2023-04-11T01:07:08.885Z,55.97
2023-04-11T01:09:36.422Z,56.19
2023-04-11T01:12:04.585Z,56.21
2023-04-11T01:14:31.026Z,56.21
2023-04-11T01:16:58.178Z,56.46
2023-04-11T01:19:26.591Z,56.35
2023-04-11T01:21:55.737Z,56.36
2023-04-11T01:24:22.541Z,56.23
2023-04-11T01:26:49.375Z,56.67
2023-04-11T01:29:16.097Z,56.96
2023-04-11T01:31:42.958Z,58.40
2023-04-11T01:34:12.768Z,58.38
2023-04-11T01:36:40.841Z,57.97
2023-04-11T01:39:07.293Z,57.77
2023-04-11T01:41:35.322Z,57.61
2023-04-11T01:44:03.830Z,57.00
2023-04-11T01:46:30.594Z,57.35
2023-04-11T01:48:58.470Z,57.30
2023-04-11T01:51:24.958Z,57.44
2023-04-11T01:53:51.303Z,57.61
2023-04-11T01:56:17.628Z,57.88
2023-04-11T01:58:44.033Z,58.32
2023-04-11T02:01:11.853Z,58.40
2023-04-11T02:03:38.329Z,58.42
2023-04-11T02:06:05.411Z,58.00
2023-04-11T02:08:31.832Z,58.22
2023-04-11T02:10:58.236Z,58.77
2023-04-11T02:13:24.608Z,58.49
2023-04-11T02:15:51.064Z,58.68
2023-04-11T02:18:17.429Z,58.65
2023-04-11T02:20:43.769Z,59.05
2023-04-11T02:23:11.031Z,59.31
2023-04-11T02:25:38.982Z,59.33
2023-04-11T02:28:07.993Z,59.73
2023-04-11T02:30:34.716Z,59.76
2023-04-11T02:33:01.569Z,60.06
2023-04-11T02:35:28.148Z,60.03
2023-04-11T02:37:54.538Z,60.54
2023-04-11T02:40:20.951Z,60.79
2023-04-11T02:42:47.569Z,61.20
2023-04-11T02:45:14.021Z,61.30
2023-04-11T02:47:40.470Z,61.74
2023-04-11T02:50:07.721Z,61.75
2023-04-11T02:52:34.244Z,61.65
2023-04-11T02:55:00.875Z,61.68
2023-04-11T02:57:27.721Z,61.71
2023-04-11T02:59:54.146Z,61.25
2023-04-11T03:02:23.485Z,61.09
2023-04-11T03:04:50.162Z,60.70
2023-04-11T03:07:16.647Z,60.01
2023-04-11T03:09:43.194Z,60.15
2023-04-11T03:12:09.605Z,60.26
2023-04-11T03:14:36.029Z,60.31
2023-04-11T03:17:02.601Z,60.03
2023-04-11T03:19:29.002Z,59.29
2023-04-11T03:21:56.038Z,59.64
2023-04-11T03:24:22.419Z,59.20
2023-04-11T03:26:48.819Z,58.78
2023-04-11T03:29:16.530Z,59.38
2023-04-11T03:31:43.084Z,59.36
2023-04-11T03:34:09.639Z,59.45
2023-04-11T03:36:36.179Z,59.83
2023-04-11T03:39:02.861Z,59.60
2023-04-11T03:41:36.749Z,59.43
2023-04-11T03:44:03.256Z,59.85
2023-04-11T03:46:29.949Z,59.07
2023-04-11T03:48:56.577Z,59.33
2023-04-11T03:51:23.185Z,59.33
2023-04-11T03:53:49.809Z,59.53
2023-04-11T03:56:16.398Z,59.45
2023-04-11T03:58:42.933Z,60.05
2023-04-11T04:01:09.431Z,60.10
2023-04-11T04:03:36.371Z,60.33
2023-04-11T04:06:03.142Z,60.31
2023-04-11T04:08:29.588Z,60.26
2023-04-11T04:10:56.053Z,60.46
2023-04-11T04:13:22.537Z,60.45
2023-04-11T04:15:51.479Z,60.21
2023-04-11T04:18:17.973Z,60.51
2023-04-11T04:20:44.784Z,60.24
2023-04-11T04:23:14.170Z,60.64
2023-04-11T04:25:42.271Z,60.63
2023-04-11T04:28:09.864Z,59.65
2023-04-11T04:30:38.071Z,59.78
2023-04-11T04:33:04.664Z,59.50
2023-04-11T04:35:31.077Z,59.60
2023-04-11T04:37:57.628Z,59.54
2023-04-11T04:40:24.128Z,59.46
2023-04-11T04:42:58.447Z,59.77
2023-04-11T04:45:26.257Z,59.40
2023-04-11T04:47:52.879Z,59.82
2023-04-11T04:50:20.040Z,59.99
2023-04-11T04:52:47.174Z,60.03
2023-04-11T04:55:14.362Z,60.46
2023-04-11T04:57:40.876Z,60.42
2023-04-11T05:00:09.720Z,60.39
2023-04-11T05:02:37.842Z,60.37
2023-04-11T05:05:04.976Z,60.80
2023-04-11T05:07:31.442Z,60.45
2023-04-11T05:09:57.975Z,60.72
2023-04-11T05:12:27.139Z,61.13
2023-04-11T05:14:55.396Z,61.44
2023-04-11T05:17:23.941Z,61.14
2023-04-11T05:19:52.026Z,61.40
2023-04-11T05:22:53.609Z,61.54
2023-04-11T05:25:20.155Z,61.28
2023-04-11T05:27:46.515Z,61.46
2023-04-11T05:30:13.415Z,61.64
2023-04-11T05:32:39.913Z,61.91
2023-04-11T05:35:06.782Z,61.69
2023-04-11T05:37:33.180Z,62.17
2023-04-11T05:40:00.200Z,62.21
2023-04-11T05:42:26.826Z,62.14
2023-04-11T05:44:53.265Z,62.59
2023-04-11T05:47:19.747Z,62.42
2023-04-11T05:49:46.137Z,62.50
2023-04-11T05:52:12.506Z,62.65
2023-04-11T05:54:38.979Z,62.47
2023-04-11T05:57:07.389Z,62.43
2023-04-11T05:59:34.670Z,62.39
2023-04-11T06:02:01.844Z,62.53
2023-04-11T06:04:28.552Z,62.42
2023-04-11T06:06:56.031Z,62.47
2023-04-11T06:09:22.494Z,62.28
2023-04-11T06:11:49.096Z,62.54
2023-04-11T06:14:15.581Z,62.97
2023-04-11T06:16:42.489Z,62.48
2023-04-11T06:19:09.064Z,62.37
2023-04-11T06:21:35.472Z,62.33
2023-04-11T06:24:09.133Z,61.93
2023-04-11T06:26:35.584Z,62.12
2023-04-11T06:29:05.933Z,61.52
2023-04-11T06:31:33.545Z,61.42
2023-04-11T06:34:03.114Z,61.55
2023-04-11T06:36:30.174Z,61.47
2023-04-11T06:38:56.678Z,61.04
2023-04-11T06:41:23.930Z,60.81
2023-04-11T06:43:50.513Z,60.51
2023-04-11T06:46:24.907Z,60.58
2023-04-11T06:48:51.650Z,60.71
2023-04-11T06:51:21.103Z,60.09
2023-04-11T06:53:47.564Z,60.33
2023-04-11T06:56:14.206Z,60.10
2023-04-11T06:58:40.713Z,59.98
2023-04-11T07:01:07.481Z,59.94
2023-04-11T07:03:34.136Z,60.24
2023-04-11T07:06:01.297Z,60.35
2023-04-11T07:08:27.785Z,60.68
2023-04-11T07:10:54.322Z,60.20
2023-04-11T07:13:21.261Z,60.21
2023-04-11T07:15:47.839Z,60.38
2023-04-11T07:18:14.812Z,60.02
2023-04-11T07:20:41.471Z,59.55
2023-04-11T07:23:07.953Z,59.51
2023-04-11T07:25:34.408Z,59.42
2023-04-11T07:28:00.918Z,58.98
2023-04-11T07:30:29.070Z,58.31
2023-04-11T07:32:55.816Z,58.55
2023-04-11T07:35:22.376Z,58.00
2023-04-11T07:37:48.830Z,57.83
2023-04-11T07:40:15.541Z,56.88
2023-04-11T07:42:42.256Z,57.69
2023-04-11T07:45:09.134Z,56.82
2023-04-11T07:47:35.784Z,57.34
2023-04-11T07:50:03.195Z,56.79
2023-04-11T07:52:29.734Z,56.36
2023-04-11T07:54:56.206Z,56.42
2023-04-11T07:57:22.643Z,56.49
2023-04-11T07:59:49.055Z,56.66
2023-04-11T08:02:15.706Z,55.54
2023-04-11T08:04:42.366Z,55.91
2023-04-11T08:07:08.843Z,55.07
2023-04-11T08:09:35.335Z,54.68
2023-04-11T08:12:02.151Z,53.43
2023-04-11T08:14:28.645Z,52.50
2023-04-11T08:16:55.049Z,52.75
2023-04-11T08:19:21.961Z,53.29
2023-04-11T08:21:48.459Z,53.23
2023-04-11T08:24:14.993Z,52.24
2023-04-11T08:26:41.571Z,51.85
2023-04-11T08:29:11.387Z,51.49
2023-04-11T08:31:44.543Z,51.50
2023-04-11T08:34:11.987Z,51.36
2023-04-11T08:36:38.531Z,51.02
2023-04-11T08:39:05.040Z,50.31
2023-04-11T08:41:32.483Z,50.02
2023-04-11T08:43:59.187Z,50.13
2023-04-11T08:46:25.797Z,49.61
2023-04-11T08:48:52.265Z,48.48
2023-04-11T08:51:23.027Z,48.46
2023-04-11T08:53:53.534Z,49.15
2023-04-11T08:56:20.304Z,49.48
2023-04-11T08:58:46.964Z,49.80
2023-04-11T09:01:31.862Z,49.71
2023-04-11T09:04:00.531Z,50.06
2023-04-11T09:06:30.977Z,49.41
2023-04-11T09:08:59.331Z,47.98
2023-04-11T09:11:26.933Z,46.95
2023-04-11T09:14:10.691Z,47.01
2023-04-11T09:16:53.214Z,46.19
2023-04-11T09:19:25.144Z,45.95
2023-04-11T09:21:55.007Z,46.64
2023-04-11T09:24:22.783Z,46.14
2023-04-11T09:26:49.604Z,45.90
2023-04-11T09:29:40.621Z,45.75
2023-04-11T09:32:07.269Z,45.51
2023-04-11T09:34:37.379Z,45.16
2023-04-11T09:37:04.314Z,45.13
2023-04-11T09:39:32.436Z,45.73
2023-04-11T09:41:59.041Z,45.60
2023-04-11T09:44:36.961Z,45.84
2023-04-11T09:47:03.619Z,45.82
2023-04-11T09:49:31.265Z,45.09
2023-04-11T09:51:57.833Z,45.64
2023-04-11T09:54:27.172Z,45.71
2023-04-11T09:56:53.956Z,45.58
2023-04-11T09:59:21.304Z,45.81
2023-04-11T10:01:50.047Z,45.68
2023-04-11T10:04:16.588Z,45.83
2023-04-11T10:07:10.876Z,45.83
2023-04-11T10:09:40.851Z,45.63
2023-04-11T10:12:07.225Z,45.65
2023-04-11T10:14:36.618Z,45.20
2023-04-11T10:17:21.407Z,45.71
2023-04-11T10:19:51.300Z,44.65
2023-04-11T10:22:43.566Z,44.24
2023-04-11T10:25:17.435Z,44.93
2023-04-11T10:27:53.559Z,44.01
2023-04-11T10:30:38.945Z,42.65
2023-04-11T10:33:17.419Z,42.49
2023-04-11T10:36:10.869Z,42.01
2023-04-11T10:38:40.899Z,43.07
2023-04-11T10:41:22.602Z,42.97
2023-04-11T10:43:49.941Z,42.44
2023-04-11T10:46:18.449Z,41.92
2023-04-11T10:49:04.554Z,41.96
2023-04-11T10:51:33.284Z,41.96
2023-04-11T10:54:00.690Z,41.25
2023-04-11T10:56:42.746Z,41.48
2023-04-11T10:59:31.038Z,41.59
2023-04-11T11:02:02.251Z,42.04
2023-04-11T11:04:32.621Z,41.84
2023-04-11T11:07:01.243Z,42.19
2023-04-11T11:09:30.770Z,41.71
2023-04-11T11:12:10.567Z,42.08
2023-04-11T11:14:37.984Z,42.07
2023-04-11T11:17:04.593Z,41.87
2023-04-11T11:19:33.354Z,42.64
2023-04-11T11:22:03.427Z,41.80
2023-04-11T11:24:30.586Z,40.80
2023-04-11T11:26:57.986Z,41.15
2023-04-11T11:29:35.681Z,40.81
2023-04-11T11:32:05.511Z,40.92
2023-04-11T11:34:33.722Z,39.10
2023-04-11T11:37:06.519Z,38.74
2023-04-11T11:39:34.358Z,38.81
2023-04-11T11:42:01.545Z,37.91
2023-04-11T11:44:29.767Z,38.34
2023-04-11T11:47:18.050Z,37.87
2023-04-11T11:49:48.471Z,38.12
2023-04-11T11:52:34.506Z,38.25
2023-04-11T11:55:02.558Z,39.49
2023-04-11T11:57:28.992Z,38.31
2023-04-11T11:59:56.496Z,38.27
2023-04-11T12:02:25.376Z,37.71
2023-04-11T12:05:08.588Z,37.00
2023-04-11T12:07:37.888Z,36.51
2023-04-11T12:10:11.443Z,35.98
2023-04-11T12:12:39.797Z,35.07
2023-04-11T12:15:12.391Z,34.78
2023-04-11T12:17:39.878Z,34.49
2023-04-11T12:20:08.253Z,33.97
2023-04-11T12:22:35.345Z,34.38
2023-04-11T12:25:10.193Z,34.17
2023-04-11T12:27:38.127Z,33.94
2023-04-11T12:30:05.352Z,33.04
2023-04-11T12:32:35.534Z,33.78
2023-04-11T12:35:04.190Z,34.47
2023-04-11T12:37:31.387Z,34.30
2023-04-11T12:39:57.739Z,34.26
2023-04-11T12:42:27.116Z,34.44
2023-04-11T12:44:54.026Z,34.31
2023-04-11T12:47:20.441Z,33.29
2023-04-11T12:49:46.834Z,33.02
2023-04-11T12:52:13.353Z,32.51
2023-04-11T12:54:40.005Z,32.86
2023-04-11T12:57:07.558Z,32.35
2023-04-11T12:59:34.091Z,31.61
2023-04-11T13:02:01.787Z,31.34
2023-04-11T13:04:28.578Z,31.51
2023-04-11T13:06:55.121Z,32.11
2023-04-11T13:09:21.863Z,31.61
2023-04-11T13:11:48.298Z,30.86
2023-04-11T13:14:14.814Z,31.04
2023-04-11T13:16:41.264Z,31.19
2023-04-11T13:19:08.041Z,31.38
2023-04-11T13:21:34.436Z,31.80
2023-04-11T13:24:00.798Z,32.43
2023-04-11T13:26:28.656Z,32.95
2023-04-11T13:28:55.446Z,32.37
2023-04-11T13:31:26.551Z,31.59
2023-04-11T13:33:53.416Z,32.01
2023-04-11T13:36:19.832Z,31.46
2023-04-11T13:38:47.219Z,32.17
2023-04-11T13:41:14.924Z,31.52
2023-04-11T13:43:41.497Z,30.74
2023-04-11T13:46:07.958Z,30.48
2023-04-11T13:48:35.435Z,30.39
2023-04-11T13:51:01.884Z,29.73
2023-04-11T13:53:28.402Z,29.62
2023-04-11T13:55:54.799Z,29.70
2023-04-11T13:58:21.499Z,29.99
2023-04-11T14:00:50.264Z,30.75
2023-04-11T14:03:17.052Z,29.62
2023-04-11T14:05:43.697Z,29.63
2023-04-11T14:08:10.174Z,29.52
2023-04-11T14:10:36.580Z,29.59
2023-04-11T14:13:03.480Z,30.43
2023-04-11T14:15:31.560Z,30.63
2023-04-11T14:17:57.934Z,29.85
2023-04-11T14:20:25.350Z,30.18
2023-04-11T14:22:52.151Z,30.81
2023-04-11T14:25:18.602Z,29.91
2023-04-11T14:27:45.011Z,30.12
2023-04-11T14:30:12.890Z,30.51
2023-04-11T14:32:40.407Z,30.06
2023-04-11T14:35:08.518Z,29.87
2023-04-11T14:37:35.405Z,29.91
2023-04-11T14:40:10.692Z,30.45
2023-04-11T14:42:37.898Z,30.41
2023-04-11T14:45:05.723Z,30.54
2023-04-11T14:47:32.799Z,30.41
2023-04-11T14:49:59.396Z,30.42
2023-04-11T14:52:25.811Z,30.59
2023-04-11T14:54:52.135Z,31.34
2023-04-11T14:57:18.498Z,31.53
2023-04-11T14:59:44.848Z,30.75
2023-04-11T15:02:11.738Z,30.62
2023-04-11T15:04:38.308Z,30.45
2023-04-11T15:07:04.831Z,29.77
2023-04-11T15:09:31.231Z,29.90
2023-04-11T15:11:57.613Z,29.43
2023-04-11T15:14:29.522Z,29.85
2023-04-11T15:16:56.371Z,30.30
2023-04-11T15:19:22.884Z,29.94
2023-04-11T15:21:49.240Z,29.74
2023-04-11T15:24:16.884Z,29.90
2023-04-11T15:26:44.549Z,28.93
2023-04-11T15:29:14.811Z,29.28
2023-04-11T15:31:41.257Z,29.18
2023-04-11T15:34:07.672Z,29.14
2023-04-11T15:36:36.659Z,28.70
2023-04-11T15:39:04.476Z,28.83
2023-04-11T15:41:31.919Z,29.03
2023-04-11T15:44:00.302Z,29.83
2023-04-11T15:46:27.133Z,28.74
2023-04-11T15:48:53.574Z,28.99
2023-04-11T15:51:19.949Z,29.53
2023-04-11T15:53:48.264Z,29.08
2023-04-11T15:56:14.626Z,28.79
2023-04-11T15:58:41.824Z,28.53
2023-04-11T16:01:20.840Z,29.03
2023-04-11T16:03:48.025Z,28.42
2023-04-11T16:06:14.810Z,28.73
2023-04-11T16:08:41.268Z,29.19
2023-04-11T16:11:07.703Z,29.25
2023-04-11T16:13:34.104Z,29.83
2023-04-11T16:16:00.796Z,29.99
2023-04-11T16:18:27.394Z,30.00
2023-04-11T16:20:53.848Z,29.87
2023-04-11T16:23:20.372Z,29.97
2023-04-11T16:25:46.831Z,30.15
2023-04-11T16:28:14.172Z,30.44
2023-04-11T16:30:40.824Z,30.00
2023-04-11T16:33:07.414Z,29.75
2023-04-11T16:35:33.999Z,29.91
2023-04-11T16:38:00.723Z,29.19
2023-04-11T16:40:27.160Z,28.51
2023-04-11T16:42:53.497Z,29.04
2023-04-11T16:45:20.340Z,29.41
2023-04-11T16:47:46.807Z,29.32
2023-04-11T16:50:13.225Z,28.69
2023-04-11T16:52:39.720Z,28.76
2023-04-11T16:55:06.363Z,28.54
2023-04-11T16:57:33.182Z,28.57
2023-04-11T17:00:00.797Z,28.62
2023-04-11T17:02:27.431Z,28.52
2023-04-11T17:04:53.939Z,28.16
2023-04-11T17:07:20.597Z,28.87
2023-04-11T17:09:48.349Z,28.75
2023-04-11T17:12:14.791Z,28.53
2023-04-11T17:14:41.217Z,28.82
2023-04-11T17:17:07.699Z,28.63
2023-04-11T17:19:34.113Z,28.82
2023-04-11T17:22:00.645Z,28.54
2023-04-11T17:24:27.073Z,27.52
2023-04-11T17:26:53.931Z,28.13
2023-04-11T17:29:20.360Z,28.25
2023-04-11T17:31:46.796Z,28.46
2023-04-11T17:34:13.438Z,27.82
2023-04-11T17:36:42.751Z,27.49
2023-04-11T17:39:11.303Z,27.85
2023-04-11T17:41:37.942Z,27.89
2023-04-11T17:44:04.388Z,27.82
2023-04-11T17:46:31.059Z,28.03
2023-04-11T17:48:57.542Z,27.98
2023-04-11T17:51:23.899Z,27.67
2023-04-11T17:53:50.735Z,28.28
2023-04-11T17:56:17.069Z,28.16
2023-04-11T17:58:45.251Z,28.05
2023-04-11T18:01:11.727Z,28.73
2023-04-11T18:03:40.040Z,28.86
2023-04-11T18:06:07.724Z,29.01
2023-04-11T18:08:49.672Z,29.59
2023-04-11T18:11:17.265Z,29.66
2023-04-11T18:13:43.846Z,29.66
2023-04-11T18:16:10.830Z,29.84
2023-04-11T18:18:37.395Z,30.81
2023-04-11T18:21:05.815Z,30.75
2023-04-11T18:23:33.958Z,30.92
2023-04-11T18:26:00.490Z,31.10
2023-04-11T18:28:26.931Z,31.91
2023-04-11T18:30:53.336Z,32.36
2023-04-11T18:33:20.784Z,32.11
2023-04-11T18:35:47.730Z,32.47
2023-04-11T18:38:14.511Z,32.89
2023-04-11T18:40:41.053Z,32.86
2023-04-11T18:43:07.949Z,32.89
2023-04-11T18:45:35.300Z,32.83
2023-04-11T18:48:01.999Z,32.95
2023-04-11T18:50:30.458Z,32.97
2023-04-11T18:53:00.909Z,33.66
2023-04-11T18:55:30.800Z,34.08
2023-04-11T18:57:59.866Z,33.82
2023-04-11T19:00:29.250Z,33.83
2023-04-11T19:02:56.397Z,34.08
2023-04-11T19:05:25.086Z,34.22
2023-04-11T19:07:52.173Z,34.27
2023-04-11T19:10:18.607Z,34.70
2023-04-11T19:12:45.160Z,34.67
2023-04-11T19:15:12.207Z,35.08
2023-04-11T19:17:38.948Z,35.37
2023-04-11T19:20:13.253Z,35.67
2023-04-11T19:22:40.904Z,36.25
2023-04-11T19:25:10.491Z,35.98
2023-04-11T19:27:40.314Z,35.81
2023-04-11T19:30:10.728Z,36.26
2023-04-11T19:32:40.573Z,36.69
2023-04-11T19:35:09.902Z,36.30
2023-04-11T19:37:36.460Z,36.96
2023-04-11T19:40:16.656Z,37.02
2023-04-11T19:42:44.795Z,37.12
2023-04-11T19:45:11.770Z,37.57
2023-04-11T19:47:39.980Z,37.42
2023-04-11T19:50:09.301Z,37.32
2023-04-11T19:52:35.647Z,37.33
2023-04-11T19:55:02.070Z,38.16
2023-04-11T19:57:28.895Z,38.40
2023-04-11T19:59:55.525Z,38.49
2023-04-11T20:02:22.049Z,38.79
2023-04-11T20:04:49.670Z,38.58
2023-04-11T20:07:16.434Z,39.08
2023-04-11T20:09:42.818Z,38.38
2023-04-11T20:12:09.335Z,39.07
2023-04-11T20:14:37.184Z,39.03
2023-04-11T20:17:04.772Z,39.07
2023-04-11T20:19:33.056Z,38.92
2023-04-11T20:22:00.737Z,38.98
2023-04-11T20:24:27.659Z,39.14
2023-04-11T20:26:54.414Z,39.09
2023-04-11T20:29:21.132Z,39.27
2023-04-11T20:31:47.588Z,39.20
2023-04-11T20:34:13.985Z,39.30
2023-04-11T20:36:40.436Z,39.37
2023-04-11T20:39:07.121Z,39.44
2023-04-11T20:41:33.942Z,39.55
2023-04-11T20:44:00.497Z,39.29
2023-04-11T20:46:30.027Z,39.48
2023-04-11T20:48:56.577Z,38.76
2023-04-11T20:51:23.148Z,39.01
2023-04-11T20:53:49.687Z,38.98
2023-04-11T20:56:16.103Z,39.25
2023-04-11T20:58:42.655Z,39.30
2023-04-11T21:01:09.217Z,39.28
2023-04-11T21:03:38.535Z,38.91
2023-04-11T21:06:07.415Z,38.87
2023-04-11T21:08:37.230Z,38.87
2023-04-11T21:11:04.915Z,38.86
2023-04-11T21:13:31.425Z,38.93
2023-04-11T21:15:58.528Z,38.96
2023-04-11T21:18:25.167Z,39.07
2023-04-11T21:20:51.548Z,39.05
2023-04-11T21:23:18.157Z,39.17
2023-04-11T21:25:44.682Z,38.98
2023-04-11T21:28:11.084Z,39.18
2023-04-11T21:30:39.303Z,39.30
2023-04-11T21:33:05.814Z,39.75
2023-04-11T21:35:32.301Z,39.00
2023-04-11T21:37:58.705Z,39.26
2023-04-11T21:40:25.120Z,39.15
2023-04-11T21:42:51.616Z,39.14
2023-04-11T21:45:18.115Z,39.35
2023-04-11T21:47:44.605Z,39.51
2023-04-11T21:50:11.476Z,39.47
2023-04-11T21:52:37.882Z,39.48
2023-04-11T21:55:08.056Z,39.45
2023-04-11T21:57:35.680Z,39.49
2023-04-11T22:00:02.289Z,39.79
2023-04-11T22:02:28.917Z,39.63
2023-04-11T22:05:06.245Z,39.65
2023-04-11T22:07:49.211Z,39.66
2023-04-11T22:10:22.001Z,39.52
2023-04-11T22:12:48.820Z,39.70
2023-04-11T22:15:18.294Z,39.89
2023-04-11T22:17:50.181Z,39.77
2023-04-11T22:20:16.823Z,39.96
2023-04-11T22:22:44.791Z,40.31
2023-04-11T22:25:11.509Z,40.24
2023-04-11T22:27:38.474Z,40.28
2023-04-11T22:30:06.126Z,40.36
2023-04-11T22:32:33.656Z,40.55
2023-04-11T22:35:00.103Z,40.46
2023-04-11T22:37:26.581Z,40.60
2023-04-11T22:39:53.102Z,40.63
2023-04-11T22:42:19.956Z,40.67
2023-04-11T22:44:46.404Z,40.79
2023-04-11T22:47:13.632Z,40.77
2023-04-11T22:49:44.614Z,40.91
2023-04-11T22:52:15.311Z,41.09
2023-04-11T22:54:42.406Z,41.22
2023-04-11T22:57:08.809Z,41.22
2023-04-11T22:59:35.753Z,41.29
2023-04-11T23:02:02.151Z,41.36
2023-04-11T23:04:28.732Z,41.41
2023-04-11T23:06:55.152Z,41.42
2023-04-11T23:09:21.699Z,41.47
2023-04-11T23:11:48.774Z,41.71
2023-04-11T23:14:17.987Z,41.61
2023-04-11T23:16:44.852Z,41.66
2023-04-11T23:19:11.533Z,41.76
2023-04-11T23:21:38.066Z,41.81
2023-04-11T23:24:06.663Z,42.02
2023-04-11T23:26:33.181Z,42.02
2023-04-11T23:29:01.997Z,42.07
2023-04-11T23:31:28.587Z,42.29
2023-04-11T23:33:55.662Z,42.14
2023-04-11T23:36:22.718Z,42.35
2023-04-11T23:38:49.246Z,42.61
2023-04-11T23:41:15.817Z,42.59
2023-04-11T23:43:42.293Z,42.60
2023-04-11T23:46:08.747Z,42.39
2023-04-11T23:48:35.192Z,42.59
2023-04-11T23:51:02.075Z,42.77
2023-04-11T23:53:28.452Z,42.63
2023-04-11T23:55:54.903Z,42.84
2023-04-11T23:58:21.323Z,42.82
